Ashford, Alabama
Current Conditions -  °F | °C
As of 1:53 AM on Thursday 23 Oct 2014 (Local Time) from KDHN Reporting Station
Clear Clear  
Wind Chill:   Ceiling: Unl
Heat Index:   Visibility: 10mi
Dew Point:   Wind: 6mph
Humidity: 86%   Direction: 20°NNE
Pressure: 30.1"   Gusts: NA
Location:  31.18°N, 85.24°W
Report Text: KDHN 230653Z AUTO 02005KT 10SM CLR 09/07 A3010 RMK AO2 SLP191 T00890067
Loading
Personal Weather Stations






























Interactive Weather Map
Tropical Storm Tracking
New forecast layout! Learn more

10-Day Weather Forecast

Advertisements
Track Severe Weather on mobile